createdAt,value
2022-11-15T00:01:44.897Z,7.90
2022-11-15T00:04:30.468Z,7.90
2022-11-15T00:07:40.293Z,7.80
2022-11-15T00:10:22.049Z,7.90
2022-11-15T00:13:09.581Z,7.80
2022-11-15T00:16:02.011Z,7.80
2022-11-15T00:18:50.581Z,7.90
2022-11-15T00:21:36.506Z,7.80
2022-11-15T00:24:22.535Z,7.80
2022-11-15T00:27:08.566Z,7.70
2022-11-15T00:29:54.399Z,7.60
2022-11-15T00:32:40.149Z,7.50
2022-11-15T00:35:26.177Z,7.40
2022-11-15T00:38:12.119Z,7.50
2022-11-15T00:40:57.549Z,7.40
2022-11-15T00:43:44.773Z,7.40
2022-11-15T00:46:30.987Z,7.40
2022-11-15T00:49:16.821Z,7.30
2022-11-15T00:52:02.582Z,7.30
2022-11-15T00:54:48.478Z,7.20
2022-11-15T00:57:34.079Z,7.10
2022-11-15T01:00:19.822Z,7.30
2022-11-15T01:03:05.666Z,7.30
2022-11-15T01:05:51.344Z,7.20
2022-11-15T01:08:37.283Z,7.30
2022-11-15T01:11:23.118Z,7.20
2022-11-15T01:14:08.869Z,7.30
2022-11-15T01:16:54.447Z,7.20
2022-11-15T01:19:40.241Z,7.20
2022-11-15T01:22:26.031Z,7.20
2022-11-15T01:25:11.595Z,7.30
2022-11-15T01:27:57.313Z,7.50
2022-11-15T01:30:42.866Z,7.40
2022-11-15T01:33:29.778Z,7.40
2022-11-15T01:36:22.780Z,7.20
2022-11-15T01:39:09.375Z,7.30
2022-11-15T01:41:55.652Z,7.30
2022-11-15T01:44:52.964Z,7.40
2022-11-15T01:47:48.563Z,7.40
2022-11-15T01:50:34.606Z,7.30
2022-11-15T01:53:22.742Z,7.40
2022-11-15T01:56:13.264Z,7.50
2022-11-15T01:59:01.226Z,7.30
2022-11-15T02:01:47.922Z,7.20
2022-11-15T02:04:39.012Z,7.30
2022-11-15T02:07:24.902Z,7.30
2022-11-15T02:10:20.458Z,7.30
2022-11-15T02:13:06.474Z,7.30
2022-11-15T02:16:31.207Z,7.20
2022-11-15T02:20:01.765Z,7.30
2022-11-15T02:23:43.546Z,7.40
2022-11-15T02:27:06.386Z,7.40
2022-11-15T02:30:26.105Z,7.40
2022-11-15T02:33:42.783Z,7.40
2022-11-15T02:37:01.619Z,7.30
2022-11-15T02:40:24.765Z,7.30
2022-11-15T02:47:14.247Z,7.40
2022-11-15T02:50:09.578Z,7.50
2022-11-15T02:52:56.584Z,7.40
2022-11-15T02:55:51.178Z,7.40
2022-11-15T02:59:14.840Z,7.50
2022-11-15T03:02:38.419Z,7.40
2022-11-15T03:05:42.811Z,7.30
2022-11-15T03:08:58.367Z,7.30
2022-11-15T03:11:50.900Z,7.40
2022-11-15T03:14:44.373Z,7.50
2022-11-15T03:17:37.476Z,7.40
2022-11-15T03:20:24.666Z,7.40
2022-11-15T03:23:11.872Z,7.30
2022-11-15T03:26:00.523Z,7.30
2022-11-15T03:28:57.833Z,7.40
2022-11-15T03:31:50.901Z,7.40
2022-11-15T03:35:02.856Z,7.40
2022-11-15T03:38:01.790Z,7.40
2022-11-15T03:40:54.847Z,7.40
2022-11-15T03:44:13.066Z,7.40
2022-11-15T03:47:17.176Z,7.40
2022-11-15T03:50:14.065Z,7.50
2022-11-15T03:53:00.445Z,7.50
2022-11-15T03:55:46.232Z,7.40
2022-11-15T03:58:32.270Z,7.50
2022-11-15T04:01:18.084Z,7.40
2022-11-15T04:04:03.639Z,7.40
2022-11-15T04:06:49.192Z,7.40
2022-11-15T04:09:34.524Z,7.40
2022-11-15T04:12:31.838Z,7.50
2022-11-15T04:15:23.296Z,7.50
2022-11-15T04:18:09.044Z,7.50
2022-11-15T04:21:13.134Z,7.40
2022-11-15T04:24:13.789Z,7.40
2022-11-15T04:26:59.957Z,7.40
2022-11-15T04:29:45.556Z,7.40
2022-11-15T04:32:31.283Z,7.40
2022-11-15T04:35:16.916Z,7.40
2022-11-15T04:38:04.117Z,7.50
2022-11-15T04:40:49.978Z,7.50
2022-11-15T04:43:35.765Z,7.50
2022-11-15T04:46:22.435Z,7.50
2022-11-15T04:49:08.081Z,7.50
2022-11-15T04:51:54.001Z,7.40
2022-11-15T04:54:39.470Z,7.50
2022-11-15T04:57:24.974Z,7.50
2022-11-15T05:00:16.356Z,7.50
2022-11-15T05:03:20.761Z,7.50
2022-11-15T05:06:07.677Z,7.60
2022-11-15T05:08:53.868Z,7.50
2022-11-15T05:11:39.790Z,7.50
2022-11-15T05:14:25.577Z,7.50
2022-11-15T05:17:11.263Z,7.50
2022-11-15T05:19:56.861Z,7.50
2022-11-15T05:22:42.506Z,7.60
2022-11-15T05:25:27.988Z,7.50
2022-11-15T05:28:14.246Z,7.50
2022-11-15T05:31:14.425Z,7.50
2022-11-15T05:34:01.963Z,7.50
2022-11-15T05:36:47.839Z,7.40
2022-11-15T05:39:33.463Z,7.40
2022-11-15T05:42:19.848Z,7.50
2022-11-15T05:45:07.676Z,7.40
2022-11-15T05:47:55.235Z,7.30
2022-11-15T05:50:44.157Z,7.30
2022-11-15T05:53:30.808Z,7.30
2022-11-15T05:56:16.890Z,7.30
2022-11-15T05:59:03.156Z,7.30
2022-11-15T06:01:49.721Z,7.40
2022-11-15T06:04:35.913Z,7.40
2022-11-15T06:07:22.006Z,7.30
2022-11-15T06:10:08.826Z,7.30
2022-11-15T06:13:02.466Z,7.30
2022-11-15T06:15:47.739Z,7.30
2022-11-15T06:18:34.976Z,7.30
2022-11-15T06:21:20.645Z,7.30
2022-11-15T06:24:06.857Z,7.30
2022-11-15T06:26:53.170Z,7.30
2022-11-15T06:29:38.738Z,7.30
2022-11-15T06:32:24.119Z,7.30
2022-11-15T06:35:09.692Z,7.40
2022-11-15T06:37:55.366Z,7.30
2022-11-15T06:40:41.121Z,7.40
2022-11-15T06:43:27.095Z,7.40
2022-11-15T06:46:13.002Z,7.40
2022-11-15T06:48:58.813Z,7.30
2022-11-15T06:51:44.650Z,7.30
2022-11-15T06:54:29.918Z,7.40
2022-11-15T06:57:15.479Z,7.40
2022-11-15T07:00:01.287Z,7.50
2022-11-15T07:02:47.297Z,7.60
2022-11-15T07:05:32.839Z,7.70
2022-11-15T07:08:18.572Z,7.70
2022-11-15T07:11:07.265Z,7.80
2022-11-15T07:13:52.847Z,7.70
2022-11-15T07:16:38.772Z,7.50
2022-11-15T07:19:24.235Z,7.50
2022-11-15T07:22:09.819Z,7.60
2022-11-15T07:24:55.402Z,7.60
2022-11-15T07:27:41.296Z,7.70
2022-11-15T07:30:28.335Z,7.70
2022-11-15T07:33:14.035Z,7.70
2022-11-15T07:36:02.785Z,7.90
2022-11-15T07:38:48.425Z,7.70
2022-11-15T07:41:34.116Z,7.70
2022-11-15T07:44:19.827Z,7.80
2022-11-15T07:47:05.776Z,7.80
2022-11-15T07:49:51.610Z,7.90
2022-11-15T07:52:37.738Z,8.00
2022-11-15T07:55:25.003Z,8.10
2022-11-15T07:58:12.248Z,8.30
2022-11-15T08:00:58.013Z,8.40
2022-11-15T08:03:44.049Z,8.50
2022-11-15T08:06:31.190Z,8.60
2022-11-15T08:09:17.102Z,8.70
2022-11-15T08:12:03.010Z,8.70
2022-11-15T08:14:48.856Z,8.50
2022-11-15T08:17:35.056Z,8.40
2022-11-15T08:20:20.988Z,8.40
2022-11-15T08:23:07.308Z,8.50
2022-11-15T08:25:52.937Z,8.50
2022-11-15T08:28:38.956Z,8.60
2022-11-15T08:31:24.613Z,8.70
2022-11-15T08:34:10.539Z,8.70
2022-11-15T08:36:56.310Z,8.80
2022-11-15T08:39:42.213Z,8.60
2022-11-15T08:42:28.323Z,8.80
2022-11-15T08:45:14.218Z,8.80
2022-11-15T08:48:04.234Z,8.80
2022-11-15T08:50:49.949Z,8.70
2022-11-15T08:53:36.163Z,8.90
2022-11-15T08:56:21.551Z,8.90
2022-11-15T08:59:07.166Z,8.70
2022-11-15T09:01:53.316Z,8.80
2022-11-15T09:04:40.308Z,9.00
2022-11-15T09:07:25.921Z,9.00
2022-11-15T09:10:12.027Z,9.00
2022-11-15T09:13:00.606Z,9.10
2022-11-15T09:15:46.171Z,9.00
2022-11-15T09:18:32.760Z,9.10
2022-11-15T09:21:18.544Z,9.10
2022-11-15T09:24:05.347Z,8.80
2022-11-15T09:26:52.751Z,8.70
2022-11-15T09:29:38.330Z,9.00
2022-11-15T09:32:24.441Z,9.10
2022-11-15T09:35:10.172Z,9.00
2022-11-15T09:37:56.570Z,9.10
2022-11-15T09:40:42.502Z,9.20
2022-11-15T09:44:00.561Z,9.30
2022-11-15T09:47:43.337Z,9.30
2022-11-15T09:50:51.872Z,9.40
2022-11-15T09:56:41.285Z,9.60
2022-11-15T09:59:37.789Z,9.30
2022-11-15T10:02:52.395Z,9.50
2022-11-15T10:05:24.908Z,9.50
2022-11-15T10:08:03.391Z,9.50
2022-11-15T10:14:00.780Z,9.20
2022-11-15T10:17:26.703Z,9.10
2022-11-15T10:20:19.583Z,8.90
2022-11-15T10:22:52.279Z,8.70
2022-11-15T10:25:31.851Z,8.70
2022-11-15T10:28:17.633Z,8.80
2022-11-15T10:30:51.217Z,8.90
2022-11-15T10:33:36.653Z,9.00
2022-11-15T10:36:30.426Z,9.30
2022-11-15T10:38:58.844Z,9.30
2022-11-15T10:41:35.953Z,9.50
2022-11-15T10:44:13.396Z,9.70
2022-11-15T10:46:47.787Z,9.80
2022-11-15T10:49:20.219Z,9.80
2022-11-15T10:51:55.732Z,9.40
2022-11-15T10:54:30.752Z,9.20
2022-11-15T10:57:00.771Z,9.40
2022-11-15T10:59:36.203Z,9.50
2022-11-15T11:02:36.294Z,9.70
2022-11-15T11:05:06.762Z,9.90
2022-11-15T11:07:36.579Z,10.20
2022-11-15T11:10:49.131Z,10.50
2022-11-15T11:13:36.135Z,10.30
2022-11-15T11:16:40.971Z,9.70
2022-11-15T11:19:49.369Z,9.50
2022-11-15T11:22:27.110Z,10.10
2022-11-15T11:25:32.666Z,10.40
2022-11-15T11:28:38.384Z,9.80
2022-11-15T11:31:37.256Z,10.20
2022-11-15T11:34:51.813Z,9.90
2022-11-15T11:37:52.266Z,10.20
2022-11-15T11:40:52.838Z,10.30
2022-11-15T11:43:51.077Z,10.40
2022-11-15T11:46:44.705Z,10.10
2022-11-15T11:49:17.857Z,10.50
2022-11-15T11:52:24.419Z,10.20
2022-11-15T11:55:35.420Z,10.40
2022-11-15T11:58:44.619Z,10.70
2022-11-15T12:01:30.378Z,10.70
2022-11-15T12:04:39.274Z,10.60
2022-11-15T12:07:40.248Z,10.20
2022-11-15T12:10:27.289Z,10.60
2022-11-15T12:13:16.932Z,10.60
2022-11-15T12:15:50.971Z,10.40
2022-11-15T12:18:18.279Z,10.20
2022-11-15T12:20:58.210Z,10.60
2022-11-15T12:23:33.870Z,10.60
2022-11-15T12:26:17.016Z,10.90
2022-11-15T12:29:07.084Z,11.30
2022-11-15T12:31:43.000Z,11.40
2022-11-15T12:34:42.929Z,11.70
2022-11-15T12:37:59.196Z,12.00
2022-11-15T12:40:57.018Z,12.20
2022-11-15T12:43:42.227Z,13.10
2022-11-15T12:46:22.531Z,12.90
2022-11-15T12:48:55.781Z,12.20
2022-11-15T12:51:59.968Z,12.00
2022-11-15T12:54:57.564Z,11.50
2022-11-15T12:57:39.683Z,11.60
2022-11-15T13:00:47.023Z,11.60
2022-11-15T13:03:20.149Z,10.80
2022-11-15T13:06:08.292Z,10.80
2022-11-15T13:08:44.997Z,11.00
2022-11-15T13:11:43.616Z,11.40
2022-11-15T13:14:42.394Z,11.60
2022-11-15T13:17:31.093Z,11.70
2022-11-15T13:20:31.945Z,11.80
2022-11-15T13:23:30.045Z,11.80
2022-11-15T13:26:23.790Z,11.70
2022-11-15T13:28:55.725Z,11.60
2022-11-15T13:31:41.388Z,11.50
2022-11-15T13:34:51.042Z,11.60
2022-11-15T13:37:37.603Z,11.30
2022-11-15T13:40:38.057Z,11.20
2022-11-15T13:43:37.259Z,11.30
2022-11-15T13:46:15.293Z,11.30
2022-11-15T13:48:44.377Z,11.30
2022-11-15T13:51:29.793Z,11.30
2022-11-15T13:54:01.008Z,11.30
2022-11-15T13:56:30.083Z,11.00
2022-11-15T13:58:57.432Z,11.00
2022-11-15T14:01:30.047Z,10.90
2022-11-15T14:04:00.021Z,10.90
2022-11-15T14:06:29.831Z,10.90
2022-11-15T14:09:39.110Z,10.80
2022-11-15T14:12:34.619Z,10.80
2022-11-15T14:15:19.576Z,10.70
2022-11-15T14:17:49.999Z,10.70
2022-11-15T14:20:33.713Z,10.70
2022-11-15T14:23:06.786Z,10.70
2022-11-15T14:25:36.415Z,10.70
2022-11-15T14:28:31.867Z,10.80
2022-11-15T14:31:01.029Z,10.70
2022-11-15T14:33:36.858Z,10.50
2022-11-15T14:36:32.251Z,10.50
2022-11-15T14:38:59.326Z,10.50
2022-11-15T14:41:33.859Z,10.50
2022-11-15T14:44:00.912Z,10.40
2022-11-15T14:46:27.940Z,10.40
2022-11-15T14:48:54.999Z,10.40
2022-11-15T14:51:22.029Z,10.40
2022-11-15T14:53:49.830Z,10.40
2022-11-15T14:56:17.776Z,10.40
2022-11-15T14:58:44.799Z,10.40
2022-11-15T15:01:25.506Z,10.40
2022-11-15T15:03:56.829Z,10.40
2022-11-15T15:06:24.031Z,10.40
2022-11-15T15:08:52.087Z,10.40
2022-11-15T15:11:28.232Z,10.40
2022-11-15T15:13:59.403Z,10.40
2022-11-15T15:16:26.507Z,10.40
2022-11-15T15:18:53.797Z,10.40
2022-11-15T15:21:25.649Z,10.30
2022-11-15T15:23:55.159Z,10.20
2022-11-15T15:26:23.709Z,10.20
2022-11-15T15:28:52.247Z,10.20
2022-11-15T15:31:19.704Z,10.20
2022-11-15T15:33:46.792Z,10.20
2022-11-15T15:36:15.270Z,10.20
2022-11-15T15:38:42.513Z,10.20
2022-11-15T15:41:16.888Z,10.10
2022-11-15T15:43:44.801Z,10.10
2022-11-15T15:46:20.372Z,10.10
2022-11-15T15:48:48.195Z,10.10
2022-11-15T15:51:20.152Z,10.10
2022-11-15T15:53:48.751Z,10.00
2022-11-15T15:56:15.787Z,10.00
2022-11-15T15:58:43.103Z,10.00
2022-11-15T16:01:10.576Z,10.00
2022-11-15T16:03:37.975Z,10.00
2022-11-15T16:06:06.237Z,10.00
2022-11-15T16:08:47.538Z,9.90
2022-11-15T16:11:20.413Z,9.90
2022-11-15T16:13:47.458Z,9.90
2022-11-15T16:16:15.029Z,9.90
2022-11-15T16:18:42.058Z,9.90
2022-11-15T16:21:09.787Z,9.90
2022-11-15T16:23:36.926Z,9.90
2022-11-15T16:26:22.259Z,9.90
2022-11-15T16:28:49.396Z,9.90
2022-11-15T16:31:19.221Z,9.90
2022-11-15T16:33:46.794Z,9.80
2022-11-15T16:36:35.050Z,9.70
2022-11-15T16:39:06.263Z,9.60
2022-11-15T16:41:33.752Z,9.70
2022-11-15T16:44:00.881Z,9.60
2022-11-15T16:46:29.583Z,9.60
2022-11-15T16:48:57.089Z,9.60
2022-11-15T16:51:24.348Z,9.60
2022-11-15T16:53:51.675Z,9.70
2022-11-15T16:56:29.805Z,9.70
2022-11-15T16:58:59.025Z,9.70
2022-11-15T17:01:36.598Z,9.70
2022-11-15T17:04:12.881Z,9.70
2022-11-15T17:06:41.680Z,9.60
2022-11-15T17:09:20.247Z,9.70
2022-11-15T17:11:47.502Z,9.70
2022-11-15T17:14:14.608Z,9.70
2022-11-15T17:16:44.740Z,9.60
2022-11-15T17:19:16.699Z,9.70
2022-11-15T17:21:44.775Z,9.70
2022-11-15T17:24:12.331Z,9.70
2022-11-15T17:26:41.008Z,9.70
2022-11-15T17:29:08.788Z,9.70
2022-11-15T17:31:36.877Z,9.70
2022-11-15T17:34:05.716Z,9.70
2022-11-15T17:36:33.416Z,9.70
2022-11-15T17:39:00.716Z,9.70
2022-11-15T17:41:28.951Z,9.70
2022-11-15T17:44:00.549Z,9.70
2022-11-15T17:46:29.218Z,9.70
2022-11-15T17:48:57.538Z,9.80
2022-11-15T17:51:25.094Z,9.70
2022-11-15T17:53:53.412Z,9.70
2022-11-15T17:56:22.505Z,9.60
2022-11-15T17:58:54.991Z,9.60
2022-11-15T18:01:33.439Z,9.60
2022-11-15T18:04:02.275Z,9.60
2022-11-15T18:06:31.784Z,9.60
2022-11-15T18:08:59.426Z,9.60
2022-11-15T18:11:33.060Z,9.50
2022-11-15T18:14:03.187Z,9.50
2022-11-15T18:16:33.169Z,9.50
2022-11-15T18:19:00.427Z,9.50
2022-11-15T18:21:34.014Z,9.50
2022-11-15T18:24:02.193Z,9.40
2022-11-15T18:26:30.659Z,9.40
2022-11-15T18:29:04.372Z,9.40
2022-11-15T18:31:31.813Z,9.30
2022-11-15T18:34:00.412Z,9.30
2022-11-15T18:36:30.154Z,9.30
2022-11-15T18:38:59.942Z,9.40
2022-11-15T18:41:30.909Z,9.40
2022-11-15T18:43:59.729Z,9.40
2022-11-15T18:46:28.966Z,9.30
2022-11-15T18:48:56.384Z,9.40
2022-11-15T18:51:26.044Z,9.40
2022-11-15T18:53:54.584Z,9.40
2022-11-15T18:56:22.458Z,9.40
2022-11-15T18:58:51.698Z,9.50
2022-11-15T19:01:21.273Z,9.30
2022-11-15T19:03:50.523Z,9.30
2022-11-15T19:06:20.173Z,9.20
2022-11-15T19:08:49.475Z,9.30
2022-11-15T19:11:24.045Z,9.30
2022-11-15T19:13:56.648Z,9.20
2022-11-15T19:16:24.459Z,9.20
2022-11-15T19:18:59.419Z,9.20
2022-11-15T19:21:28.696Z,9.10
2022-11-15T19:23:55.703Z,9.20
2022-11-15T19:26:23.830Z,9.20
2022-11-15T19:28:52.939Z,9.10
2022-11-15T19:31:20.945Z,9.10
2022-11-15T19:33:48.411Z,9.10
2022-11-15T19:36:23.922Z,9.10
2022-11-15T19:38:51.036Z,9.10
2022-11-15T19:41:20.340Z,9.10
2022-11-15T19:43:48.178Z,9.00
2022-11-15T19:46:16.091Z,9.10
2022-11-15T19:48:43.695Z,9.00
2022-11-15T19:51:15.766Z,9.10
2022-11-15T19:53:43.399Z,9.00
2022-11-15T19:56:16.030Z,9.00
2022-11-15T19:58:43.586Z,9.00
2022-11-15T20:01:18.242Z,9.10
2022-11-15T20:03:46.209Z,9.00
2022-11-15T20:06:15.980Z,9.00
2022-11-15T20:08:44.245Z,9.10
2022-11-15T20:11:12.912Z,9.00
2022-11-15T20:13:40.946Z,9.10
2022-11-15T20:16:08.583Z,9.10
2022-11-15T20:18:36.453Z,9.10
2022-11-15T20:21:06.371Z,9.10
2022-11-15T20:23:33.570Z,9.20
2022-11-15T20:26:00.729Z,9.20
2022-11-15T20:28:29.161Z,9.30
2022-11-15T20:30:58.770Z,9.30
2022-11-15T20:33:26.660Z,9.20
2022-11-15T20:35:54.414Z,9.20
2022-11-15T20:38:21.991Z,9.20
2022-11-15T20:40:50.662Z,9.20
2022-11-15T20:43:19.659Z,9.20
2022-11-15T20:45:48.364Z,9.20
2022-11-15T20:48:16.160Z,9.20
2022-11-15T20:50:44.749Z,9.10
2022-11-15T20:53:13.904Z,9.10
2022-11-15T20:55:49.079Z,9.20
2022-11-15T20:58:17.368Z,9.20
2022-11-15T21:00:45.685Z,9.20
2022-11-15T21:03:14.289Z,9.20
2022-11-15T21:05:43.220Z,9.20
2022-11-15T21:08:11.768Z,9.20
2022-11-15T21:10:59.061Z,9.20
2022-11-15T21:13:26.864Z,9.20
2022-11-15T21:16:00.625Z,9.20
2022-11-15T21:18:27.652Z,9.20
2022-11-15T21:20:54.783Z,9.10
2022-11-15T21:23:22.101Z,9.10
2022-11-15T21:25:50.566Z,9.10
2022-11-15T21:28:17.820Z,9.20
2022-11-15T21:30:58.962Z,9.10
2022-11-15T21:33:27.788Z,9.10
2022-11-15T21:35:55.989Z,9.10
2022-11-15T21:38:24.125Z,9.10
2022-11-15T21:40:52.505Z,9.00
2022-11-15T21:43:20.867Z,9.10
2022-11-15T21:46:02.492Z,9.10
2022-11-15T21:48:31.644Z,9.00
2022-11-15T21:51:04.246Z,9.00
2022-11-15T21:53:32.196Z,9.00
2022-11-15T21:56:00.786Z,8.90
2022-11-15T21:58:28.817Z,9.00
2022-11-15T22:01:15.357Z,9.00
2022-11-15T22:03:43.086Z,9.00
2022-11-15T22:06:17.217Z,9.00
2022-11-15T22:08:46.537Z,9.00
2022-11-15T22:11:14.398Z,9.00
2022-11-15T22:13:41.701Z,9.00
2022-11-15T22:16:09.461Z,9.00
2022-11-15T22:18:37.301Z,9.00
2022-11-15T22:21:07.360Z,9.00
2022-11-15T22:23:36.379Z,9.10
2022-11-15T22:26:04.328Z,9.00
2022-11-15T22:28:32.075Z,9.00
2022-11-15T22:31:00.526Z,9.00
2022-11-15T22:33:30.085Z,9.00
2022-11-15T22:35:57.556Z,9.00
2022-11-15T22:38:25.295Z,9.00
2022-11-15T22:40:52.282Z,9.00
2022-11-15T22:43:22.402Z,9.00
2022-11-15T22:45:57.724Z,9.00
2022-11-15T22:48:33.738Z,9.00
2022-11-15T22:51:01.608Z,9.00
2022-11-15T22:53:29.360Z,8.90
2022-11-15T22:55:58.717Z,8.90
2022-11-15T22:58:27.884Z,8.90
2022-11-15T23:00:58.554Z,8.90
2022-11-15T23:03:27.048Z,9.00
2022-11-15T23:05:54.320Z,9.00
2022-11-15T23:08:23.086Z,8.90
2022-11-15T23:11:08.911Z,9.00
2022-11-15T23:13:36.139Z,9.10
2022-11-15T23:16:23.705Z,9.00
2022-11-15T23:18:53.495Z,9.10
2022-11-15T23:21:59.902Z,9.10
2022-11-15T23:24:27.270Z,9.00
2022-11-15T23:26:56.891Z,9.00
2022-11-15T23:29:25.471Z,9.00
2022-11-15T23:32:12.596Z,9.00
2022-11-15T23:34:42.203Z,9.00
2022-11-15T23:37:11.687Z,9.00
2022-11-15T23:39:39.043Z,9.00
2022-11-15T23:42:09.364Z,9.00
2022-11-15T23:44:36.869Z,9.00
2022-11-15T23:47:04.253Z,8.90
2022-11-15T23:49:31.256Z,8.90
2022-11-15T23:51:58.299Z,9.00
2022-11-15T23:54:25.329Z,9.10
2022-11-15T23:56:52.371Z,9.00
2022-11-15T23:59:19.356Z,9.00
